createdAt,value
2019-05-03T00:01:28.894Z,17.27
2019-05-03T00:04:00.262Z,16.67
2019-05-03T00:06:32.077Z,16.37
2019-05-03T00:09:02.370Z,16.43
2019-05-03T00:11:34.133Z,16.80
2019-05-03T00:14:04.445Z,16.33
2019-05-03T00:16:36.458Z,16.23
2019-05-03T00:19:07.605Z,16.73
2019-05-03T00:21:37.734Z,17.63
2019-05-03T00:24:07.961Z,17.20
2019-05-03T00:26:38.269Z,16.87
2019-05-03T00:29:08.434Z,15.93
2019-05-03T00:31:38.598Z,17.13
2019-05-03T00:34:12.475Z,16.80
2019-05-03T00:36:46.909Z,16.30
2019-05-03T00:39:28.106Z,17.23
2019-05-03T00:41:58.268Z,16.70
2019-05-03T00:44:28.560Z,17.03
2019-05-03T00:46:58.734Z,16.70
2019-05-03T00:49:28.847Z,17.17
2019-05-03T00:51:58.990Z,16.80
2019-05-03T00:54:29.034Z,16.80
2019-05-03T00:56:59.186Z,17.13
2019-05-03T00:59:29.390Z,17.23
2019-05-03T01:01:59.543Z,16.63
2019-05-03T01:04:31.666Z,17.03
2019-05-03T01:07:02.301Z,16.43
2019-05-03T01:09:33.820Z,16.37
2019-05-03T01:12:03.946Z,17.00
2019-05-03T01:14:35.430Z,16.73
2019-05-03T01:17:05.680Z,16.50
2019-05-03T01:19:35.802Z,16.47
2019-05-03T01:22:05.970Z,16.27
2019-05-03T01:24:36.105Z,16.70
2019-05-03T01:27:06.239Z,16.27
2019-05-03T01:29:36.365Z,16.03
2019-05-03T01:32:06.504Z,16.50
2019-05-03T01:34:36.767Z,15.93
2019-05-03T01:37:06.948Z,16.33
2019-05-03T01:39:37.006Z,16.40
2019-05-03T01:42:07.146Z,15.63
2019-05-03T01:44:37.225Z,16.50
2019-05-03T01:47:11.527Z,16.27
2019-05-03T01:49:57.750Z,17.00
2019-05-03T01:52:32.438Z,16.07
2019-05-03T01:55:03.303Z,16.60
2019-05-03T01:57:33.721Z,16.67
2019-05-03T02:00:04.239Z,16.53
2019-05-03T02:02:52.450Z,15.73
2019-05-03T02:05:32.056Z,15.60
2019-05-03T02:08:03.419Z,16.20
2019-05-03T02:10:33.575Z,16.17
2019-05-03T02:13:04.025Z,16.47
2019-05-03T02:15:34.164Z,15.53
2019-05-03T02:18:04.460Z,17.10
2019-05-03T02:20:34.647Z,16.83
2019-05-03T02:23:04.920Z,17.70
2019-05-03T02:25:35.151Z,16.30
2019-05-03T02:28:05.293Z,16.63
2019-05-03T02:30:35.408Z,16.17
2019-05-03T02:33:05.614Z,16.63
2019-05-03T02:35:35.738Z,16.57
2019-05-03T02:38:07.943Z,16.13
2019-05-03T02:40:38.054Z,17.47
2019-05-03T02:43:25.638Z,16.50
2019-05-03T02:46:11.413Z,17.00
2019-05-03T02:48:48.707Z,17.17
2019-05-03T02:51:18.759Z,16.27
2019-05-03T02:53:48.878Z,16.90
2019-05-03T02:56:22.582Z,17.17
2019-05-03T02:58:50.973Z,16.63
2019-05-03T03:01:22.397Z,16.93
2019-05-03T03:03:55.830Z,17.33
2019-05-03T03:06:27.037Z,16.80
2019-05-03T03:08:59.124Z,18.33
2019-05-03T03:11:35.412Z,18.13
2019-05-03T03:14:05.733Z,18.53
2019-05-03T03:16:37.288Z,17.37
2019-05-03T03:19:07.420Z,17.83
2019-05-03T03:21:41.929Z,18.70
2019-05-03T03:24:17.878Z,18.60
2019-05-03T03:26:49.562Z,18.73
2019-05-03T03:29:25.249Z,18.93
2019-05-03T03:32:02.659Z,19.00
2019-05-03T03:34:38.987Z,18.83
2019-05-03T03:37:10.573Z,20.63
2019-05-03T03:39:41.701Z,20.10
2019-05-03T03:42:12.856Z,19.97
2019-05-03T03:44:45.399Z,20.37
2019-05-03T03:47:16.687Z,21.70
2019-05-03T03:49:48.673Z,19.60
2019-05-03T03:52:20.966Z,21.57
2019-05-03T03:54:55.284Z,22.30
2019-05-03T03:57:26.539Z,21.07
2019-05-03T03:59:56.708Z,21.83
2019-05-03T04:02:27.170Z,22.67
2019-05-03T04:04:58.044Z,23.07
2019-05-03T04:07:28.488Z,22.63
2019-05-03T04:09:58.739Z,23.77
2019-05-03T04:12:28.987Z,24.10
2019-05-03T04:15:18.481Z,24.70
2019-05-03T04:18:16.173Z,26.57
2019-05-03T04:20:45.947Z,27.53
2019-05-03T04:23:16.604Z,28.10
2019-05-03T04:25:46.642Z,28.03
2019-05-03T04:28:17.431Z,28.10
2019-05-03T04:30:47.628Z,29.83
2019-05-03T04:33:17.786Z,30.67
2019-05-03T04:35:48.019Z,29.50
2019-05-03T04:38:18.157Z,30.10
2019-05-03T04:40:48.435Z,25.93
2019-05-03T04:43:18.544Z,27.20
2019-05-03T04:46:06.248Z,22.63
2019-05-03T04:48:36.046Z,26.27
2019-05-03T04:51:06.281Z,26.27
2019-05-03T04:53:39.293Z,24.23
2019-05-03T04:56:09.583Z,21.27
2019-05-03T04:58:39.807Z,17.30
2019-05-03T05:01:09.981Z,17.07
2019-05-03T05:03:40.142Z,16.30
2019-05-03T05:06:10.285Z,15.50
2019-05-03T05:08:40.481Z,14.60
2019-05-03T05:11:10.764Z,14.70
2019-05-03T05:13:41.011Z,13.23
2019-05-03T05:16:11.309Z,12.10
2019-05-03T05:18:46.783Z,10.50
2019-05-03T05:21:20.787Z,10.30
2019-05-03T05:23:59.119Z,8.40
2019-05-03T05:26:44.590Z,6.67
2019-05-03T05:29:16.450Z,6.43
2019-05-03T05:31:46.610Z,5.93
2019-05-03T05:34:16.711Z,5.80
2019-05-03T05:36:46.917Z,5.27
2019-05-03T05:39:18.838Z,6.03
2019-05-03T05:41:49.169Z,5.53
2019-05-03T05:44:19.298Z,5.30
2019-05-03T05:47:07.421Z,4.80
2019-05-03T05:50:05.014Z,4.80
2019-05-03T05:52:35.366Z,4.70
2019-05-03T05:55:25.333Z,4.30
2019-05-03T05:58:17.686Z,4.37
2019-05-03T06:01:00.370Z,3.93
2019-05-03T06:03:30.649Z,4.10
2019-05-03T06:06:05.269Z,3.93
2019-05-03T06:08:44.655Z,4.33
2019-05-03T06:11:22.745Z,4.60
2019-05-03T06:13:57.149Z,4.50
2019-05-03T06:16:38.243Z,3.40
2019-05-03T06:19:21.838Z,4.57
2019-05-03T06:22:20.054Z,4.40
2019-05-03T06:24:55.806Z,4.53
2019-05-03T06:27:34.725Z,4.70
2019-05-03T06:30:14.930Z,4.40
2019-05-03T06:32:45.153Z,4.60
2019-05-03T06:35:15.334Z,4.70
2019-05-03T06:37:46.145Z,4.20
2019-05-03T06:40:16.467Z,4.90
2019-05-03T06:42:54.563Z,4.90
2019-05-03T06:45:19.106Z,4.13
2019-05-03T06:47:50.051Z,4.53
2019-05-03T06:50:27.531Z,4.63
2019-05-03T06:52:54.796Z,4.30
2019-05-03T06:55:25.245Z,4.50
2019-05-03T06:57:55.359Z,4.37
2019-05-03T07:00:59.830Z,4.07
2019-05-03T07:03:47.091Z,4.27
2019-05-03T07:06:40.462Z,3.67
2019-05-03T07:09:16.718Z,3.67
2019-05-03T07:11:46.822Z,4.03
2019-05-03T07:14:16.946Z,4.10
2019-05-03T07:16:47.131Z,4.50
2019-05-03T07:19:17.226Z,4.23
2019-05-03T07:21:47.425Z,4.03
2019-05-03T07:24:17.565Z,3.90
2019-05-03T07:26:48.786Z,4.43
2019-05-03T07:29:18.902Z,4.10
2019-05-03T07:31:49.215Z,4.50
2019-05-03T07:34:19.458Z,4.63
2019-05-03T07:36:49.769Z,4.83
2019-05-03T07:39:19.887Z,4.80
2019-05-03T07:41:50.134Z,4.60
2019-05-03T07:44:20.251Z,4.60
2019-05-03T07:46:51.469Z,4.63
2019-05-03T07:49:21.968Z,4.77
2019-05-03T07:51:55.326Z,4.47
2019-05-03T07:54:25.641Z,4.33
2019-05-03T07:57:00.871Z,4.83
2019-05-03T07:59:31.014Z,4.87
2019-05-03T08:02:01.165Z,4.53
2019-05-03T08:04:32.354Z,4.80
2019-05-03T08:07:04.410Z,4.70
2019-05-03T08:09:35.068Z,5.27
2019-05-03T08:12:05.501Z,4.53
2019-05-03T08:14:35.820Z,5.63
2019-05-03T08:17:06.102Z,5.07
2019-05-03T08:19:36.247Z,4.80
2019-05-03T08:22:06.411Z,4.67
2019-05-03T08:24:36.598Z,4.80
2019-05-03T08:27:06.793Z,4.40
2019-05-03T08:29:36.942Z,4.60
2019-05-03T08:32:29.245Z,5.80
2019-05-03T08:35:35.423Z,6.13
2019-05-03T08:38:05.582Z,5.33
2019-05-03T08:40:41.209Z,6.30
2019-05-03T08:43:11.555Z,5.07
2019-05-03T08:45:41.678Z,5.30
2019-05-03T08:48:11.901Z,5.37
2019-05-03T08:50:42.114Z,4.57
2019-05-03T08:53:15.618Z,4.17
2019-05-03T08:55:45.105Z,4.20
2019-05-03T08:58:15.575Z,3.60
2019-05-03T09:00:45.957Z,3.77
2019-05-03T09:03:16.146Z,4.17
2019-05-03T09:05:46.589Z,3.90
2019-05-03T09:08:16.857Z,4.43
2019-05-03T09:10:54.525Z,4.00
2019-05-03T09:13:25.235Z,3.33
2019-05-03T09:15:55.585Z,3.33
2019-05-03T09:18:25.977Z,2.97
2019-05-03T09:20:56.274Z,3.33
2019-05-03T09:23:26.437Z,3.40
2019-05-03T09:25:56.614Z,2.90
2019-05-03T09:28:29.188Z,3.30
2019-05-03T09:30:58.637Z,2.90
2019-05-03T09:33:28.791Z,2.80
2019-05-03T09:35:58.955Z,3.00
2019-05-03T09:38:29.102Z,2.60
2019-05-03T09:40:59.202Z,2.73
2019-05-03T09:43:29.343Z,3.03
2019-05-03T09:45:59.467Z,2.60
2019-05-03T09:48:29.538Z,3.80
2019-05-03T09:50:59.776Z,3.70
2019-05-03T09:53:35.179Z,3.70
2019-05-03T09:56:05.421Z,3.20
2019-05-03T09:58:38.135Z,3.40
2019-05-03T10:01:08.571Z,3.73
2019-05-03T10:03:39.038Z,4.43
2019-05-03T10:06:09.222Z,3.40
2019-05-03T10:08:39.523Z,2.77
2019-05-03T10:11:15.192Z,3.10
2019-05-03T10:13:48.258Z,2.80
2019-05-03T10:16:17.107Z,2.60
2019-05-03T10:18:47.332Z,2.50
2019-05-03T10:21:17.570Z,2.77
2019-05-03T10:23:47.707Z,3.53
2019-05-03T10:26:17.911Z,3.03
2019-05-03T10:28:48.036Z,3.80
2019-05-03T10:31:18.161Z,5.03
2019-05-03T10:33:56.803Z,3.10
2019-05-03T10:36:27.039Z,2.07
2019-05-03T10:38:57.233Z,2.80
2019-05-03T10:41:27.463Z,2.20
2019-05-03T10:43:57.670Z,2.27
2019-05-03T10:46:27.794Z,2.50
2019-05-03T10:48:58.019Z,2.03
2019-05-03T10:51:30.238Z,2.23
2019-05-03T10:54:01.321Z,2.07
2019-05-03T10:56:38.911Z,2.47
2019-05-03T10:59:10.078Z,2.27
2019-05-03T11:01:59.271Z,2.10
2019-05-03T11:04:30.237Z,2.40
2019-05-03T11:07:00.441Z,1.97
2019-05-03T11:09:30.674Z,2.07
2019-05-03T11:12:02.695Z,1.90
2019-05-03T11:14:35.042Z,2.13
2019-05-03T11:17:05.647Z,2.20
2019-05-03T11:19:37.147Z,2.10
2019-05-03T11:22:07.286Z,2.23
2019-05-03T11:24:37.522Z,2.20
2019-05-03T11:27:13.181Z,2.03
2019-05-03T11:29:45.006Z,1.93
2019-05-03T11:32:40.488Z,2.20
2019-05-03T11:35:44.871Z,2.17
2019-05-03T11:38:21.134Z,1.90
2019-05-03T11:40:52.401Z,2.00
2019-05-03T11:43:24.743Z,2.03
2019-05-03T11:45:56.099Z,2.53
2019-05-03T11:48:26.271Z,2.43
2019-05-03T11:50:56.451Z,2.50
2019-05-03T11:53:26.646Z,2.40
2019-05-03T11:55:57.578Z,2.17
2019-05-03T11:58:28.807Z,2.47
2019-05-03T12:01:13.130Z,2.20
2019-05-03T12:03:48.860Z,2.33
2019-05-03T12:06:19.229Z,2.50
2019-05-03T12:08:49.401Z,2.43
2019-05-03T12:11:19.613Z,2.00
2019-05-03T12:14:01.706Z,1.90
2019-05-03T12:16:59.932Z,2.00
2019-05-03T12:18:56.022Z,2.00
2019-05-03T12:21:28.209Z,1.70
2019-05-03T12:23:59.056Z,1.83
2019-05-03T12:26:40.763Z,2.10
2019-05-03T12:29:01.735Z,1.90
2019-05-03T12:31:36.892Z,1.87
2019-05-03T12:34:05.828Z,2.17
2019-05-03T12:36:38.928Z,2.00
2019-05-03T12:39:23.120Z,1.90
2019-05-03T12:41:40.322Z,1.70
2019-05-03T12:44:10.620Z,2.00
2019-05-03T12:46:40.798Z,1.60
2019-05-03T12:49:10.885Z,2.00
2019-05-03T12:51:41.037Z,1.73
2019-05-03T12:54:11.190Z,2.20
2019-05-03T12:56:41.407Z,1.93
2019-05-03T12:59:35.874Z,1.90
2019-05-03T13:02:15.481Z,2.03
2019-05-03T13:04:46.151Z,2.17
2019-05-03T13:07:25.826Z,1.93
2019-05-03T13:09:56.008Z,2.20
2019-05-03T13:12:27.923Z,1.90
2019-05-03T13:14:58.190Z,2.03
2019-05-03T13:17:38.074Z,2.00
2019-05-03T13:20:10.173Z,2.00
2019-05-03T13:22:40.469Z,2.70
2019-05-03T13:25:12.732Z,1.90
2019-05-03T13:27:42.926Z,2.00
2019-05-03T13:30:15.896Z,2.00
2019-05-03T13:32:46.273Z,2.43
2019-05-03T13:35:16.498Z,2.80
2019-05-03T13:37:47.005Z,3.67
2019-05-03T13:40:17.244Z,2.47
2019-05-03T13:42:56.055Z,2.60
2019-05-03T13:45:19.309Z,2.13
2019-05-03T13:47:49.439Z,1.97
2019-05-03T13:50:19.623Z,2.20
2019-05-03T13:52:49.726Z,2.00
2019-05-03T13:55:19.815Z,2.00
2019-05-03T13:57:49.874Z,2.03
2019-05-03T14:00:20.319Z,2.63
2019-05-03T14:02:51.541Z,2.00
2019-05-03T14:05:21.739Z,2.10
2019-05-03T14:07:51.917Z,2.27
2019-05-03T14:10:22.038Z,2.20
2019-05-03T14:12:52.562Z,2.13
2019-05-03T14:15:22.877Z,2.17
2019-05-03T14:17:54.682Z,2.47
2019-05-03T14:20:42.669Z,2.03
2019-05-03T14:23:14.801Z,1.77
2019-05-03T14:25:46.223Z,2.00
2019-05-03T14:28:16.413Z,1.80
2019-05-03T14:30:46.611Z,2.03
2019-05-03T14:33:16.921Z,2.30
2019-05-03T14:35:47.110Z,1.93
2019-05-03T14:38:20.038Z,2.30
2019-05-03T14:40:50.189Z,2.07
2019-05-03T14:43:20.357Z,2.10
2019-05-03T14:45:50.486Z,2.10
2019-05-03T14:48:20.664Z,2.60
2019-05-03T14:50:50.789Z,2.77
2019-05-03T14:53:20.988Z,3.57
2019-05-03T14:55:57.013Z,2.60
2019-05-03T14:59:04.594Z,2.60
2019-05-03T15:01:50.606Z,2.50
2019-05-03T15:04:20.804Z,2.33
2019-05-03T15:06:51.025Z,1.80
2019-05-03T15:09:21.303Z,2.13
2019-05-03T15:11:52.031Z,2.40
2019-05-03T15:14:22.218Z,2.50
2019-05-03T15:16:52.419Z,2.37
2019-05-03T15:19:22.566Z,2.60
2019-05-03T15:21:54.632Z,2.73
2019-05-03T15:24:25.231Z,3.33
2019-05-03T15:26:55.481Z,2.20
2019-05-03T15:29:25.669Z,2.33
2019-05-03T15:31:55.806Z,2.13
2019-05-03T15:34:25.882Z,2.00
2019-05-03T15:36:56.126Z,2.50
2019-05-03T15:39:26.386Z,1.80
2019-05-03T15:41:56.800Z,2.53
2019-05-03T15:44:58.350Z,1.87
2019-05-03T15:47:32.820Z,2.10
2019-05-03T15:50:04.754Z,1.87
2019-05-03T15:52:35.346Z,2.00
2019-05-03T15:55:06.396Z,1.60
2019-05-03T15:57:37.739Z,1.80
2019-05-03T16:00:09.490Z,2.30
2019-05-03T16:02:41.281Z,1.90
2019-05-03T16:05:15.450Z,1.50
2019-05-03T16:07:45.403Z,1.80
2019-05-03T16:10:15.658Z,1.77
2019-05-03T16:12:45.962Z,2.17
2019-05-03T16:15:16.102Z,2.00
2019-05-03T16:17:46.315Z,1.47
2019-05-03T16:20:17.085Z,1.90
2019-05-03T16:22:47.323Z,1.90
2019-05-03T16:25:17.522Z,1.80
2019-05-03T16:28:06.665Z,1.90
2019-05-03T16:30:46.114Z,2.00
2019-05-03T16:33:26.089Z,2.40
2019-05-03T16:35:48.078Z,2.17
2019-05-03T16:38:18.231Z,2.13
2019-05-03T16:40:48.429Z,2.40
2019-05-03T16:43:18.615Z,2.53
2019-05-03T16:45:48.818Z,2.23
2019-05-03T16:48:18.972Z,2.50
2019-05-03T16:50:49.213Z,2.43
2019-05-03T16:53:19.518Z,2.73
2019-05-03T16:55:49.697Z,2.70
2019-05-03T16:58:19.931Z,3.97
2019-05-03T17:00:50.166Z,3.60
2019-05-03T17:03:38.163Z,3.00
2019-05-03T17:06:27.635Z,2.97
2019-05-03T17:09:26.279Z,3.10
2019-05-03T17:12:25.962Z,2.83
2019-05-03T17:14:57.092Z,2.43
2019-05-03T17:17:27.485Z,3.00
2019-05-03T17:19:57.678Z,2.70
2019-05-03T17:22:28.027Z,2.67
2019-05-03T17:24:58.267Z,3.00
2019-05-03T17:27:28.433Z,2.30
2019-05-03T17:29:58.751Z,2.20
2019-05-03T17:32:28.957Z,2.37
2019-05-03T17:34:59.163Z,2.17
2019-05-03T17:37:29.585Z,2.40
2019-05-03T17:40:17.408Z,2.20
2019-05-03T17:43:16.075Z,2.50
2019-05-03T17:45:49.112Z,2.60
2019-05-03T17:48:19.299Z,2.60
2019-05-03T17:50:49.467Z,2.70
2019-05-03T17:53:38.582Z,2.47
2019-05-03T17:56:24.418Z,3.00
2019-05-03T17:58:57.851Z,3.43
2019-05-03T18:01:49.829Z,5.10
2019-05-03T18:04:37.675Z,4.30
2019-05-03T18:07:35.703Z,4.80
2019-05-03T18:10:06.851Z,4.27
2019-05-03T18:12:38.144Z,5.20
2019-05-03T18:15:08.807Z,5.70
2019-05-03T18:17:41.694Z,10.10
2019-05-03T18:20:14.940Z,10.97
2019-05-03T18:22:44.846Z,14.13
2019-05-03T18:25:15.022Z,12.60
2019-05-03T18:27:45.243Z,9.50
2019-05-03T18:30:15.587Z,6.73
2019-05-03T18:32:45.790Z,6.80
2019-05-03T18:35:15.938Z,5.77
2019-05-03T18:37:52.530Z,6.40
2019-05-03T18:40:24.734Z,7.43
2019-05-03T18:42:57.891Z,7.07
2019-05-03T18:45:45.805Z,8.77
2019-05-03T18:48:15.982Z,8.30
2019-05-03T18:50:46.110Z,7.50
2019-05-03T18:53:16.269Z,6.60
2019-05-03T18:55:46.449Z,6.23
2019-05-03T18:58:16.600Z,6.20
2019-05-03T19:00:47.362Z,5.60
2019-05-03T19:03:17.528Z,6.73
2019-05-03T19:05:49.352Z,8.33
2019-05-03T19:08:47.777Z,8.70
2019-05-03T19:11:27.689Z,9.77
2019-05-03T19:14:01.365Z,13.77
2019-05-03T19:16:52.169Z,16.53
2019-05-03T19:19:25.128Z,17.83
2019-05-03T19:21:56.065Z,18.20
2019-05-03T19:24:26.364Z,20.07
2019-05-03T19:26:56.738Z,21.67
2019-05-03T19:29:26.850Z,21.40
2019-05-03T19:31:57.074Z,24.13
2019-05-03T19:34:27.261Z,26.03
2019-05-03T19:36:57.437Z,27.40
2019-05-03T19:39:28.759Z,28.77
2019-05-03T19:41:58.893Z,29.70
2019-05-03T19:44:29.162Z,28.83
2019-05-03T19:46:59.402Z,29.83
2019-05-03T19:49:29.566Z,25.37
2019-05-03T19:51:59.803Z,24.77
2019-05-03T19:54:30.096Z,25.20
2019-05-03T19:57:00.735Z,27.17
2019-05-03T19:59:48.889Z,30.67
2019-05-03T20:02:36.634Z,33.70
2019-05-03T20:05:25.292Z,32.20
2019-05-03T20:08:09.075Z,29.07
2019-05-03T20:10:39.343Z,25.87
2019-05-03T20:13:09.666Z,23.33
2019-05-03T20:15:39.857Z,21.60
2019-05-03T20:18:11.083Z,21.07
2019-05-03T20:20:41.382Z,17.53
2019-05-03T20:23:11.538Z,17.77
2019-05-03T20:25:41.709Z,25.37
2019-05-03T20:28:11.932Z,27.97
2019-05-03T20:30:42.206Z,28.20
2019-05-03T20:33:12.679Z,24.03
2019-05-03T20:35:44.987Z,19.20
2019-05-03T20:38:15.336Z,19.17
2019-05-03T20:40:45.638Z,19.67
2019-05-03T20:43:35.131Z,19.53
2019-05-03T20:46:11.919Z,22.57
2019-05-03T20:48:44.771Z,30.17
2019-05-03T20:51:15.174Z,27.60
2019-05-03T20:53:45.369Z,21.03
2019-05-03T20:56:15.537Z,16.23
2019-05-03T20:58:45.681Z,14.10
2019-05-03T21:01:15.973Z,13.07
2019-05-03T21:03:46.274Z,15.33
2019-05-03T21:06:16.314Z,15.77
2019-05-03T21:08:52.963Z,14.10
2019-05-03T21:11:18.238Z,18.40
2019-05-03T21:13:48.395Z,23.03
2019-05-03T21:16:37.030Z,32.63
2019-05-03T21:19:24.857Z,22.50
2019-05-03T21:22:01.903Z,21.67
2019-05-03T21:24:42.955Z,35.20
2019-05-03T21:27:14.169Z,38.23
2019-05-03T21:29:54.808Z,34.07
2019-05-03T21:32:25.106Z,32.30
2019-05-03T21:34:56.606Z,35.83
2019-05-03T21:37:26.698Z,37.90
2019-05-03T21:39:56.832Z,36.70
2019-05-03T21:42:27.011Z,37.17
2019-05-03T21:44:57.274Z,31.80
2019-05-03T21:47:58.456Z,30.27
2019-05-03T21:50:28.645Z,23.50
2019-05-03T21:53:05.819Z,22.63
2019-05-03T21:55:36.222Z,19.40
2019-05-03T21:58:06.357Z,16.17
2019-05-03T22:01:00.462Z,16.53
2019-05-03T22:03:32.267Z,18.83
2019-05-03T22:06:02.555Z,18.43
2019-05-03T22:08:32.735Z,18.63
2019-05-03T22:11:02.954Z,18.80
2019-05-03T22:13:34.874Z,18.20
2019-05-03T22:16:24.619Z,17.30
2019-05-03T22:18:54.933Z,15.87
2019-05-03T22:21:45.266Z,16.83
2019-05-03T22:24:42.184Z,18.60
2019-05-03T22:27:16.176Z,16.13
2019-05-03T22:29:46.337Z,15.83
2019-05-03T22:32:16.483Z,16.80
2019-05-03T22:34:46.669Z,17.10
2019-05-03T22:37:16.799Z,15.73
2019-05-03T22:39:48.073Z,15.03
2019-05-03T22:42:18.849Z,14.03
2019-05-03T22:44:48.997Z,14.43
2019-05-03T22:47:19.143Z,14.80
2019-05-03T22:49:49.187Z,14.33
2019-05-03T22:52:19.327Z,14.40
2019-05-03T22:54:49.658Z,13.40
2019-05-03T22:57:19.801Z,13.50
2019-05-03T22:59:49.929Z,12.80
2019-05-03T23:02:20.120Z,13.27
2019-05-03T23:04:50.413Z,12.50
2019-05-03T23:07:20.648Z,12.03
2019-05-03T23:09:50.883Z,12.60
2019-05-03T23:12:21.110Z,11.87
2019-05-03T23:14:51.249Z,10.50
2019-05-03T23:17:21.412Z,11.87
2019-05-03T23:19:56.655Z,11.30
2019-05-03T23:22:29.672Z,11.40
2019-05-03T23:24:59.797Z,11.17
2019-05-03T23:27:29.933Z,11.33
2019-05-03T23:30:00.029Z,11.70
2019-05-03T23:32:30.203Z,11.70
2019-05-03T23:35:00.385Z,11.97
2019-05-03T23:37:30.672Z,12.37
2019-05-03T23:40:00.818Z,11.77
2019-05-03T23:42:30.894Z,13.03
2019-05-03T23:45:02.452Z,12.87
2019-05-03T23:47:42.415Z,13.13
2019-05-03T23:50:17.164Z,14.10
2019-05-03T23:52:47.401Z,14.50
2019-05-03T23:55:26.181Z,13.20
2019-05-03T23:57:56.321Z,14.17
